createdAt,value
2023-01-18T00:00:37.673Z,5.60
2023-01-18T00:03:08.640Z,5.60
2023-01-18T00:05:40.840Z,5.60
2023-01-18T00:08:11.299Z,5.60
2023-01-18T00:10:39.867Z,5.60
2023-01-18T00:13:07.904Z,5.60
2023-01-18T00:15:36.691Z,5.60
2023-01-18T00:18:05.335Z,5.50
2023-01-18T00:20:33.630Z,5.60
2023-01-18T00:23:02.557Z,5.60
2023-01-18T00:25:32.140Z,5.60
2023-01-18T00:28:00.122Z,5.50
2023-01-18T00:30:30.119Z,5.50
2023-01-18T00:33:00.211Z,5.50
2023-01-18T00:35:28.551Z,5.60
2023-01-18T00:37:56.536Z,5.60
2023-01-18T00:40:28.261Z,5.50
2023-01-18T00:43:17.348Z,5.40
2023-01-18T00:45:45.368Z,5.50
2023-01-18T00:48:13.364Z,5.40
2023-01-18T00:50:41.369Z,5.50
2023-01-18T00:53:09.365Z,5.40
2023-01-18T00:55:37.375Z,5.50
2023-01-18T00:58:07.429Z,5.50
2023-01-18T01:00:35.795Z,5.50
2023-01-18T01:03:03.874Z,5.60
2023-01-18T01:05:49.829Z,5.60
2023-01-18T01:08:18.177Z,5.70
2023-01-18T01:10:47.171Z,5.60
2023-01-18T01:13:36.402Z,5.60
2023-01-18T01:16:26.710Z,5.70
2023-01-18T01:19:13.014Z,5.70
2023-01-18T01:22:00.507Z,5.70
2023-01-18T01:24:45.869Z,5.60
2023-01-18T01:27:14.314Z,5.60
2023-01-18T01:29:43.671Z,5.50
2023-01-18T01:32:11.655Z,5.60
2023-01-18T01:34:40.022Z,5.50
2023-01-18T01:37:08.038Z,5.60
2023-01-18T01:39:36.140Z,5.50
2023-01-18T01:42:04.356Z,5.50
2023-01-18T01:44:50.149Z,5.50
2023-01-18T01:47:31.686Z,5.50
2023-01-18T01:50:04.250Z,5.60
2023-01-18T01:52:34.752Z,5.50
2023-01-18T01:55:08.130Z,5.50
2023-01-18T01:57:39.632Z,5.50
2023-01-18T02:00:12.315Z,5.50
2023-01-18T02:02:42.819Z,5.50
2023-01-18T02:05:14.386Z,5.60
2023-01-18T02:07:42.519Z,5.60
2023-01-18T02:10:11.576Z,5.60
2023-01-18T02:12:42.725Z,5.60
2023-01-18T02:15:12.754Z,5.60
2023-01-18T02:18:09.342Z,5.60
2023-01-18T02:21:04.901Z,5.60
2023-01-18T02:23:52.894Z,5.60
2023-01-18T02:26:59.314Z,5.60
2023-01-18T02:29:54.304Z,5.60
2023-01-18T02:32:30.807Z,5.50
2023-01-18T02:35:06.914Z,5.50
2023-01-18T02:37:44.871Z,5.50
2023-01-18T02:40:20.244Z,5.60
2023-01-18T02:43:07.536Z,5.60
2023-01-18T02:45:59.871Z,5.60
2023-01-18T02:48:35.107Z,5.50
2023-01-18T02:51:03.795Z,5.50
2023-01-18T02:53:32.590Z,5.60
2023-01-18T02:56:04.491Z,5.60
2023-01-18T02:58:35.850Z,5.50
2023-01-18T03:01:08.444Z,5.50
2023-01-18T03:03:37.157Z,5.50
2023-01-18T03:06:08.832Z,5.50
2023-01-18T03:08:42.061Z,5.40
2023-01-18T03:11:15.974Z,5.40
2023-01-18T03:14:13.072Z,5.40
2023-01-18T03:16:58.848Z,5.40
2023-01-18T03:19:55.650Z,5.40
2023-01-18T03:22:45.073Z,5.40
2023-01-18T03:25:16.587Z,5.30
2023-01-18T03:28:05.864Z,5.30
2023-01-18T03:30:53.256Z,5.40
2023-01-18T03:33:46.560Z,5.40
2023-01-18T03:36:21.508Z,5.40
2023-01-18T03:38:55.505Z,5.50
2023-01-18T03:41:29.638Z,5.50
2023-01-18T03:44:03.124Z,5.40
2023-01-18T03:46:34.126Z,5.40
2023-01-18T03:49:03.783Z,5.50
2023-01-18T03:51:47.160Z,5.40
2023-01-18T03:54:21.433Z,5.50
2023-01-18T03:56:53.506Z,5.50
2023-01-18T03:59:22.148Z,5.50
2023-01-18T04:01:50.818Z,5.60
2023-01-18T04:04:20.311Z,5.50
2023-01-18T04:06:48.388Z,5.50
2023-01-18T04:09:16.491Z,5.50
2023-01-18T04:11:44.476Z,5.50
2023-01-18T04:14:12.485Z,5.50
2023-01-18T04:16:40.707Z,5.50
2023-01-18T04:19:08.735Z,5.50
2023-01-18T04:21:38.727Z,5.60
2023-01-18T04:24:07.334Z,5.50
2023-01-18T04:26:35.506Z,5.50
2023-01-18T04:29:03.782Z,5.50
2023-01-18T04:31:32.097Z,5.50
2023-01-18T04:34:00.123Z,5.50
2023-01-18T04:36:29.310Z,5.50
2023-01-18T04:38:59.293Z,5.50
2023-01-18T04:41:27.332Z,5.50
2023-01-18T04:43:55.386Z,5.40
2023-01-18T04:46:23.434Z,5.50
2023-01-18T04:48:52.525Z,5.40
2023-01-18T04:51:20.977Z,5.50
2023-01-18T04:53:49.058Z,5.40
2023-01-18T04:56:18.929Z,5.40
2023-01-18T04:58:47.029Z,5.50
2023-01-18T05:01:16.963Z,5.40
2023-01-18T05:03:45.119Z,5.50
2023-01-18T05:06:14.969Z,5.50
2023-01-18T05:08:43.670Z,5.40
2023-01-18T05:11:13.686Z,5.40
2023-01-18T05:13:43.724Z,5.40
2023-01-18T05:16:15.487Z,5.40
2023-01-18T05:18:44.743Z,5.40
2023-01-18T05:21:13.364Z,5.30
2023-01-18T05:23:41.705Z,5.40
2023-01-18T05:26:15.982Z,5.40
2023-01-18T05:28:45.973Z,5.40
2023-01-18T05:31:14.712Z,5.30
2023-01-18T05:33:43.103Z,5.40
2023-01-18T05:36:11.657Z,5.40
2023-01-18T05:38:39.652Z,5.40
2023-01-18T05:41:07.803Z,5.40
2023-01-18T05:43:35.943Z,5.50
2023-01-18T05:46:05.627Z,5.50
2023-01-18T05:48:33.678Z,5.40
2023-01-18T05:51:01.804Z,5.40
2023-01-18T05:53:29.881Z,5.40
2023-01-18T05:55:58.966Z,5.30
2023-01-18T05:58:27.319Z,5.40
2023-01-18T06:00:56.415Z,5.40
2023-01-18T06:03:26.574Z,5.40
2023-01-18T06:05:54.580Z,5.30
2023-01-18T06:08:22.738Z,5.30
2023-01-18T06:18:54.157Z,5.30
2023-01-18T06:21:22.122Z,5.30
2023-01-18T06:23:50.053Z,5.30
2023-01-18T06:26:18.186Z,5.30
2023-01-18T06:28:46.146Z,5.30
2023-01-18T06:31:14.088Z,5.40
2023-01-18T06:33:42.049Z,5.30
2023-01-18T06:36:11.434Z,5.40
2023-01-18T06:38:39.360Z,5.40
2023-01-18T06:41:07.348Z,5.40
2023-01-18T06:43:35.372Z,5.30
2023-01-18T06:46:04.744Z,5.30
2023-01-18T06:48:32.809Z,5.30
2023-01-18T06:51:00.811Z,5.30
2023-01-18T06:53:30.534Z,5.30
2023-01-18T06:56:00.165Z,5.30
2023-01-18T06:58:28.828Z,5.30
2023-01-18T07:00:57.694Z,5.40
2023-01-18T07:03:26.901Z,5.30
2023-01-18T07:05:55.334Z,5.30
2023-01-18T07:08:23.540Z,5.30
2023-01-18T07:10:53.600Z,5.30
2023-01-18T07:13:23.318Z,5.30
2023-01-18T07:16:01.157Z,5.30
2023-01-18T07:18:30.374Z,5.30
2023-01-18T07:21:00.143Z,5.30
2023-01-18T07:23:28.660Z,5.30
2023-01-18T07:26:02.849Z,5.40
2023-01-18T07:28:31.537Z,5.40
2023-01-18T07:31:00.875Z,5.40
2023-01-18T07:33:29.008Z,5.40
2023-01-18T07:35:58.090Z,5.30
2023-01-18T07:38:26.826Z,5.40
2023-01-18T07:41:04.943Z,5.40
2023-01-18T07:43:34.057Z,5.50
2023-01-18T07:46:04.005Z,5.40
2023-01-18T07:48:33.277Z,5.40
2023-01-18T07:51:03.043Z,5.30
2023-01-18T07:53:32.907Z,5.30
2023-01-18T07:56:02.857Z,5.20
2023-01-18T07:58:31.260Z,5.30
2023-01-18T08:01:03.665Z,5.20
2023-01-18T08:03:32.381Z,5.20
2023-01-18T08:06:00.899Z,5.30
2023-01-18T08:08:29.855Z,5.30
2023-01-18T08:10:59.418Z,5.30
2023-01-18T08:13:28.864Z,5.30
2023-01-18T08:16:00.815Z,5.30
2023-01-18T08:18:29.469Z,5.40
2023-01-18T08:20:58.125Z,5.40
2023-01-18T08:23:26.278Z,5.40
2023-01-18T08:25:55.403Z,5.40
2023-01-18T08:28:23.885Z,5.40
2023-01-18T08:30:53.271Z,5.40
2023-01-18T08:33:22.280Z,5.40
2023-01-18T08:35:50.416Z,5.40
2023-01-18T08:38:18.436Z,5.40
2023-01-18T08:40:46.486Z,5.40
2023-01-18T08:43:14.528Z,5.40
2023-01-18T08:45:42.543Z,5.40
2023-01-18T08:48:12.345Z,5.50
2023-01-18T08:50:40.451Z,5.50
2023-01-18T08:53:08.486Z,5.50
2023-01-18T08:55:38.186Z,5.50
2023-01-18T08:58:06.295Z,5.50
2023-01-18T09:00:34.325Z,5.50
2023-01-18T09:03:03.038Z,5.60
2023-01-18T09:05:35.024Z,5.60
2023-01-18T09:08:03.057Z,5.60
2023-01-18T09:10:32.696Z,5.60
2023-01-18T09:13:01.102Z,5.60
2023-01-18T09:15:30.131Z,5.60
2023-01-18T09:17:58.417Z,5.60
2023-01-18T09:20:27.632Z,5.60
2023-01-18T09:22:57.393Z,5.70
2023-01-18T09:25:25.643Z,5.70
2023-01-18T09:27:53.641Z,5.60
2023-01-18T09:30:21.793Z,5.60
2023-01-18T09:32:49.820Z,5.70
2023-01-18T09:35:18.273Z,5.70
2023-01-18T09:37:46.720Z,5.70
2023-01-18T09:40:21.173Z,5.80
2023-01-18T09:42:52.511Z,5.80
2023-01-18T09:45:32.749Z,5.80
2023-01-18T09:48:05.878Z,5.80
2023-01-18T09:50:39.518Z,5.90
2023-01-18T09:53:21.163Z,6.00
2023-01-18T09:55:56.876Z,6.00
2023-01-18T09:58:37.201Z,6.00
2023-01-18T10:01:09.186Z,6.00
2023-01-18T10:03:51.416Z,6.00
2023-01-18T10:06:25.067Z,6.00
2023-01-18T10:08:58.063Z,6.00
2023-01-18T10:11:36.555Z,6.10
2023-01-18T10:14:09.380Z,6.10
2023-01-18T10:16:38.778Z,6.10
2023-01-18T10:19:16.512Z,6.20
2023-01-18T10:21:55.144Z,6.20
2023-01-18T10:24:39.447Z,6.20
2023-01-18T10:27:27.667Z,6.10
2023-01-18T10:30:07.197Z,6.20
2023-01-18T10:32:38.114Z,6.20
2023-01-18T10:35:16.613Z,6.20
2023-01-18T10:37:46.500Z,6.20
2023-01-18T10:40:15.809Z,6.30
2023-01-18T10:42:48.051Z,6.20
2023-01-18T10:45:20.149Z,6.30
2023-01-18T10:47:48.646Z,6.30
2023-01-18T10:50:18.571Z,6.30
2023-01-18T10:52:47.305Z,6.30
2023-01-18T10:55:18.069Z,6.20
2023-01-18T10:57:50.383Z,6.30
2023-01-18T11:00:27.629Z,6.20
2023-01-18T11:02:57.266Z,6.30
2023-01-18T11:05:30.696Z,6.30
2023-01-18T11:08:21.278Z,6.30
2023-01-18T11:10:59.987Z,6.30
2023-01-18T11:13:33.066Z,6.40
2023-01-18T11:16:09.938Z,6.40
2023-01-18T11:18:37.965Z,6.30
2023-01-18T11:21:11.215Z,6.40
2023-01-18T11:23:46.035Z,6.40
2023-01-18T11:26:17.233Z,6.30
2023-01-18T11:28:51.296Z,6.40
2023-01-18T11:31:22.308Z,6.50
2023-01-18T11:33:52.995Z,6.40
2023-01-18T11:36:33.499Z,6.40
2023-01-18T11:39:27.614Z,6.50
2023-01-18T11:42:17.710Z,6.40
2023-01-18T11:44:54.622Z,6.50
2023-01-18T11:47:28.481Z,6.40
2023-01-18T11:50:13.483Z,6.50
2023-01-18T11:52:51.657Z,6.50
2023-01-18T11:55:26.260Z,6.50
2023-01-18T11:57:55.023Z,6.50
2023-01-18T12:00:28.145Z,6.50
2023-01-18T12:03:21.177Z,6.60
2023-01-18T12:05:55.982Z,6.60
2023-01-18T12:08:54.932Z,6.60
2023-01-18T12:11:38.769Z,6.50
2023-01-18T12:14:16.832Z,6.50
2023-01-18T12:17:03.083Z,6.40
2023-01-18T12:19:44.569Z,6.50
2023-01-18T12:22:35.436Z,6.50
2023-01-18T12:25:21.478Z,6.60
2023-01-18T12:27:58.140Z,6.60
2023-01-18T12:30:40.064Z,6.50
2023-01-18T12:33:38.042Z,6.60
2023-01-18T12:36:28.950Z,6.60
2023-01-18T12:38:57.885Z,6.50
2023-01-18T12:41:43.795Z,6.60
2023-01-18T12:44:43.494Z,6.60
2023-01-18T12:47:27.383Z,6.60
2023-01-18T12:50:00.531Z,6.60
2023-01-18T12:52:30.365Z,6.60
2023-01-18T12:55:04.880Z,6.50
2023-01-18T12:57:34.626Z,6.50
2023-01-18T13:00:09.101Z,6.50
2023-01-18T13:02:41.600Z,6.50
2023-01-18T13:05:19.088Z,6.60
2023-01-18T13:07:50.656Z,6.60
2023-01-18T13:10:23.322Z,6.60
2023-01-18T13:12:53.165Z,6.50
2023-01-18T13:15:29.789Z,6.40
2023-01-18T13:18:07.930Z,6.50
2023-01-18T13:20:47.291Z,6.50
2023-01-18T13:23:26.700Z,6.40
2023-01-18T13:26:01.232Z,6.40
2023-01-18T13:28:29.382Z,6.30
2023-01-18T13:31:01.902Z,6.40
2023-01-18T13:33:33.326Z,6.30
2023-01-18T13:36:08.088Z,6.30
2023-01-18T13:38:42.286Z,6.40
2023-01-18T13:41:12.992Z,6.40
2023-01-18T13:44:01.279Z,6.50
2023-01-18T13:46:32.859Z,6.40
2023-01-18T13:49:02.637Z,6.40
2023-01-18T13:51:57.264Z,6.40
2023-01-18T13:55:02.255Z,6.40
2023-01-18T13:57:32.187Z,6.30
2023-01-18T14:00:02.261Z,6.30
2023-01-18T14:02:44.730Z,6.20
2023-01-18T14:05:25.141Z,6.20
2023-01-18T14:07:58.365Z,6.20
2023-01-18T14:10:33.244Z,6.20
2023-01-18T14:13:03.341Z,6.20
2023-01-18T14:15:45.333Z,6.20
2023-01-18T14:18:21.739Z,6.10
2023-01-18T14:20:57.838Z,6.10
2023-01-18T14:24:02.170Z,6.10
2023-01-18T14:26:32.333Z,6.10
2023-01-18T14:29:02.270Z,6.00
2023-01-18T14:31:34.029Z,6.10
2023-01-18T14:34:25.576Z,6.20
2023-01-18T14:36:53.650Z,6.30
2023-01-18T14:39:23.187Z,6.30
2023-01-18T14:41:56.140Z,6.20
2023-01-18T14:44:27.009Z,6.10
2023-01-18T14:46:58.194Z,6.10
2023-01-18T14:49:30.701Z,6.00
2023-01-18T14:52:00.405Z,6.00
2023-01-18T14:54:30.055Z,6.00
2023-01-18T14:57:05.903Z,6.00
2023-01-18T14:59:35.879Z,6.00
2023-01-18T15:02:14.725Z,6.00
2023-01-18T15:04:45.552Z,5.90
2023-01-18T15:07:18.872Z,5.90
2023-01-18T15:09:48.702Z,5.90
2023-01-18T15:12:20.282Z,5.90
2023-01-18T15:14:50.673Z,5.80
2023-01-18T15:17:22.244Z,5.80
2023-01-18T15:19:53.704Z,5.90
2023-01-18T15:22:25.807Z,5.80
2023-01-18T15:24:58.874Z,5.80
2023-01-18T15:27:30.054Z,5.80
2023-01-18T15:29:59.887Z,5.80
2023-01-18T15:32:30.418Z,5.80
2023-01-18T15:34:59.198Z,5.80
2023-01-18T15:37:30.182Z,5.80
2023-01-18T15:40:02.059Z,5.70
2023-01-18T15:42:33.634Z,5.70
2023-01-18T15:45:01.776Z,5.60
2023-01-18T15:47:32.652Z,5.60
2023-01-18T15:50:02.655Z,5.70
2023-01-18T15:52:40.156Z,5.70
2023-01-18T15:55:21.435Z,5.70
2023-01-18T15:58:00.693Z,5.60
2023-01-18T16:00:32.927Z,5.60
2023-01-18T16:03:03.008Z,5.60
2023-01-18T16:05:33.274Z,5.50
2023-01-18T16:08:19.352Z,5.50
2023-01-18T16:10:51.930Z,5.40
2023-01-18T16:13:30.289Z,5.30
2023-01-18T16:16:14.057Z,5.30
2023-01-18T16:18:44.400Z,5.30
2023-01-18T16:21:19.081Z,5.20
2023-01-18T16:23:49.283Z,5.30
2023-01-18T16:26:27.081Z,5.40
2023-01-18T16:29:09.948Z,5.40
2023-01-18T16:31:42.484Z,5.30
2023-01-18T16:34:27.078Z,5.30
2023-01-18T16:36:55.212Z,5.30
2023-01-18T16:39:24.418Z,5.40
2023-01-18T16:41:57.076Z,5.20
2023-01-18T16:44:25.144Z,5.00
2023-01-18T16:46:53.839Z,4.90
2023-01-18T16:49:21.979Z,4.80
2023-01-18T16:51:50.712Z,5.00
2023-01-18T16:54:19.792Z,5.10
2023-01-18T16:56:47.889Z,4.90
2023-01-18T16:59:19.327Z,4.80
2023-01-18T17:01:47.668Z,4.80
2023-01-18T17:04:16.186Z,4.80
2023-01-18T17:06:45.351Z,4.80
2023-01-18T17:09:20.961Z,4.90
2023-01-18T17:11:49.284Z,4.90
2023-01-18T17:14:19.375Z,4.90
2023-01-18T17:16:49.048Z,4.90
2023-01-18T17:19:18.816Z,4.90
2023-01-18T17:21:48.395Z,4.80
2023-01-18T17:24:17.421Z,4.70
2023-01-18T17:26:45.427Z,4.60
2023-01-18T17:29:17.945Z,4.60
2023-01-18T17:31:52.321Z,4.70
2023-01-18T17:34:27.727Z,4.80
2023-01-18T17:36:57.600Z,4.80
2023-01-18T17:39:36.955Z,4.70
2023-01-18T17:42:18.727Z,4.70
2023-01-18T17:44:50.669Z,4.70
2023-01-18T17:47:20.015Z,4.70
2023-01-18T17:49:48.057Z,4.60
2023-01-18T17:52:16.077Z,4.50
2023-01-18T17:54:44.087Z,4.50
2023-01-18T17:57:12.457Z,4.50
2023-01-18T17:59:40.531Z,4.50
2023-01-18T18:02:11.625Z,4.50
2023-01-18T18:04:41.069Z,4.40
2023-01-18T18:07:09.097Z,4.40
2023-01-18T18:09:40.468Z,4.50
2023-01-18T18:12:09.140Z,4.40
2023-01-18T18:14:40.070Z,4.40
2023-01-18T18:17:08.659Z,4.40
2023-01-18T18:19:36.804Z,4.40
2023-01-18T18:22:06.620Z,4.30
2023-01-18T18:24:34.610Z,4.30
2023-01-18T18:27:03.067Z,4.30
2023-01-18T18:29:31.124Z,4.40
2023-01-18T18:31:59.226Z,4.40
2023-01-18T18:34:27.406Z,4.30
2023-01-18T18:36:55.544Z,4.20
2023-01-18T18:39:24.924Z,4.20
2023-01-18T18:41:53.010Z,4.20
2023-01-18T18:44:20.999Z,4.30
2023-01-18T18:46:49.101Z,4.30
2023-01-18T18:49:17.158Z,4.40
2023-01-18T18:51:45.207Z,4.40
2023-01-18T18:54:13.497Z,4.40
2023-01-18T18:56:42.932Z,4.40
2023-01-18T18:59:11.186Z,4.30
2023-01-18T19:01:39.421Z,4.20
2023-01-18T19:04:07.483Z,4.40
2023-01-18T19:06:37.099Z,4.40
2023-01-18T19:09:06.322Z,4.50
2023-01-18T19:11:34.799Z,4.40
2023-01-18T19:14:05.448Z,4.40
2023-01-18T19:16:36.840Z,4.30
2023-01-18T19:19:04.978Z,4.30
2023-01-18T19:21:33.495Z,4.20
2023-01-18T19:24:01.511Z,4.10
2023-01-18T19:26:29.532Z,4.10
2023-01-18T19:28:57.565Z,4.10
2023-01-18T19:31:27.153Z,4.00
2023-01-18T19:33:56.756Z,4.10
2023-01-18T19:36:24.776Z,4.00
2023-01-18T19:38:59.646Z,4.00
2023-01-18T19:41:30.161Z,4.00
2023-01-18T19:43:58.187Z,4.10
2023-01-18T19:46:27.978Z,4.20
2023-01-18T19:49:00.183Z,4.10
2023-01-18T19:51:28.542Z,4.10
2023-01-18T19:53:57.661Z,4.10
2023-01-18T19:56:26.174Z,4.10
2023-01-18T19:58:54.167Z,4.00
2023-01-18T20:01:35.242Z,4.00
2023-01-18T20:04:07.250Z,3.90
2023-01-18T20:06:37.418Z,4.00
2023-01-18T20:09:12.649Z,4.00
2023-01-18T20:11:46.641Z,4.00
2023-01-18T20:14:14.841Z,4.00
2023-01-18T20:16:45.891Z,3.90
2023-01-18T20:19:17.334Z,4.00
2023-01-18T20:21:45.629Z,4.00
2023-01-18T20:24:13.867Z,4.00
2023-01-18T20:26:42.291Z,3.90
2023-01-18T20:29:11.363Z,3.90
2023-01-18T20:31:41.140Z,3.90
2023-01-18T20:34:10.939Z,3.80
2023-01-18T20:36:40.296Z,3.80
2023-01-18T20:39:08.311Z,3.90
2023-01-18T20:41:36.331Z,3.80
2023-01-18T20:44:04.641Z,3.80
2023-01-18T20:46:32.694Z,3.80
2023-01-18T20:49:02.919Z,3.80
2023-01-18T20:51:31.362Z,3.80
2023-01-18T20:54:01.838Z,3.70
2023-01-18T20:56:31.912Z,3.80
2023-01-18T20:58:59.929Z,3.70
2023-01-18T21:01:32.427Z,3.70
2023-01-18T21:04:02.115Z,3.70
2023-01-18T21:06:30.943Z,3.70
2023-01-18T21:09:01.188Z,3.70
2023-01-18T21:11:29.638Z,3.80
2023-01-18T21:13:59.972Z,3.80
2023-01-18T21:16:28.523Z,3.70
2023-01-18T21:18:58.820Z,3.70
2023-01-18T21:21:29.155Z,3.70
2023-01-18T21:23:57.149Z,3.80
2023-01-18T21:26:26.816Z,3.70
2023-01-18T21:28:55.253Z,3.80
2023-01-18T21:31:23.551Z,3.90
2023-01-18T21:33:51.618Z,3.90
2023-01-18T21:36:21.167Z,4.00
2023-01-18T21:38:49.536Z,3.90
2023-01-18T21:41:35.067Z,3.90
2023-01-18T21:44:22.241Z,4.00
2023-01-18T21:46:52.204Z,3.90
2023-01-18T21:52:44.711Z,4.00
2023-01-18T21:55:13.748Z,4.10
2023-01-18T21:57:41.777Z,4.10
2023-01-18T22:00:13.268Z,4.10
2023-01-18T22:02:41.385Z,4.00
2023-01-18T22:05:09.828Z,4.00
2023-01-18T22:07:37.871Z,4.00
2023-01-18T22:10:07.313Z,3.90
2023-01-18T22:12:36.534Z,3.90
2023-01-18T22:15:05.053Z,3.90
2023-01-18T22:17:34.587Z,3.90
2023-01-18T22:20:02.645Z,3.90
2023-01-18T22:22:30.654Z,3.80
2023-01-18T22:25:00.158Z,3.90
2023-01-18T22:27:28.703Z,3.80
2023-01-18T22:29:56.746Z,3.90
2023-01-18T22:32:24.836Z,3.80
2023-01-18T22:34:54.440Z,3.80
2023-01-18T22:37:23.396Z,3.80
2023-01-18T22:39:51.691Z,3.80
2023-01-18T22:42:20.025Z,3.80
2023-01-18T22:44:48.049Z,3.80
2023-01-18T22:47:16.045Z,3.70
2023-01-18T22:49:44.039Z,3.50
2023-01-18T22:52:13.415Z,3.70
2023-01-18T22:54:42.462Z,3.70
2023-01-18T22:57:10.685Z,3.80
2023-01-18T22:59:38.747Z,3.70
2023-01-18T23:02:06.798Z,3.60
2023-01-18T23:04:34.989Z,3.60
2023-01-18T23:07:03.111Z,3.60
2023-01-18T23:09:32.524Z,3.70
2023-01-18T23:12:00.629Z,3.70
2023-01-18T23:14:46.635Z,3.80
2023-01-18T23:17:32.025Z,3.80
2023-01-18T23:20:00.094Z,3.70
2023-01-18T23:22:28.198Z,3.70
2023-01-18T23:24:57.699Z,3.60
2023-01-18T23:27:25.975Z,3.70
2023-01-18T23:29:57.067Z,3.60
2023-01-18T23:32:27.882Z,3.50
2023-01-18T23:34:56.106Z,3.40
2023-01-18T23:37:24.406Z,3.50
2023-01-18T23:40:10.120Z,3.50
2023-01-18T23:42:56.835Z,3.40
2023-01-18T23:45:42.352Z,3.40
2023-01-18T23:48:30.563Z,3.40
2023-01-18T23:51:15.954Z,3.50
2023-01-18T23:54:01.527Z,3.50
2023-01-18T23:56:29.879Z,3.40
2023-01-18T23:58:59.887Z,3.40
